sensor_id;sensor_type;location;lat;lon;timestamp;P1;durP1;ratioP1;P2;durP2;ratioP2
45434;SDS011;31183;47.404;8.500;2023-07-09T00:01:21;29.73;;;26.60;;
45434;SDS011;31183;47.404;8.500;2023-07-09T00:03:48;27.45;;;21.30;;
45434;SDS011;31183;47.404;8.500;2023-07-09T00:06:18;22.17;;;17.57;;
45434;SDS011;31183;47.404;8.500;2023-07-09T00:08:47;13.18;;;10.43;;
45434;SDS011;31183;47.404;8.500;2023-07-09T00:11:15;14.55;;;12.00;;
45434;SDS011;31183;47.404;8.500;2023-07-09T00:13:42;14.65;;;11.93;;
45434;SDS011;31183;47.404;8.500;2023-07-09T00:16:13;12.27;;;8.73;;
45434;SDS011;31183;47.404;8.500;2023-07-09T00:18:50;13.85;;;9.02;;
45434;SDS011;31183;47.404;8.500;2023-07-09T00:21:17;10.32;;;7.85;;
45434;SDS011;31183;47.404;8.500;2023-07-09T00:23:46;10.57;;;8.95;;
45434;SDS011;31183;47.404;8.500;2023-07-09T00:26:15;11.88;;;10.38;;
45434;SDS011;31183;47.404;8.500;2023-07-09T00:28:43;11.50;;;10.05;;
45434;SDS011;31183;47.404;8.500;2023-07-09T00:31:14;14.73;;;11.02;;
45434;SDS011;31183;47.404;8.500;2023-07-09T00:33:42;13.98;;;11.90;;
45434;SDS011;31183;47.404;8.500;2023-07-09T00:36:16;14.80;;;12.10;;
45434;SDS011;31183;47.404;8.500;2023-07-09T00:38:52;17.20;;;13.73;;
45434;SDS011;31183;47.404;8.500;2023-07-09T00:41:20;15.68;;;14.07;;
45434;SDS011;31183;47.404;8.500;2023-07-09T00:43:49;16.83;;;14.40;;
45434;SDS011;31183;47.404;8.500;2023-07-09T00:49:07;19.10;;;14.75;;
45434;SDS011;31183;47.404;8.500;2023-07-09T00:51:39;17.98;;;15.23;;
45434;SDS011;31183;47.404;8.500;2023-07-09T00:54:17;18.58;;;16.67;;
45434;SDS011;31183;47.404;8.500;2023-07-09T00:56:59;16.77;;;15.15;;
45434;SDS011;31183;47.404;8.500;2023-07-09T00:59:32;18.70;;;15.88;;
45434;SDS011;31183;47.404;8.500;2023-07-09T01:01:59;17.60;;;14.93;;
45434;SDS011;31183;47.404;8.500;2023-07-09T01:04:27;25.05;;;16.23;;
45434;SDS011;31183;47.404;8.500;2023-07-09T01:06:55;20.60;;;16.08;;
45434;SDS011;31183;47.404;8.500;2023-07-09T01:09:23;17.73;;;15.65;;
45434;SDS011;31183;47.404;8.500;2023-07-09T01:11:51;18.50;;;14.27;;
45434;SDS011;31183;47.404;8.500;2023-07-09T01:14:24;16.77;;;14.25;;
45434;SDS011;31183;47.404;8.500;2023-07-09T01:16:53;17.70;;;14.80;;
45434;SDS011;31183;47.404;8.500;2023-07-09T01:19:25;24.23;;;14.98;;
45434;SDS011;31183;47.404;8.500;2023-07-09T01:21:55;15.38;;;13.32;;
45434;SDS011;31183;47.404;8.500;2023-07-09T01:27:13;17.83;;;15.30;;
45434;SDS011;31183;47.404;8.500;2023-07-09T01:29:41;14.52;;;11.18;;
45434;SDS011;31183;47.404;8.500;2023-07-09T01:32:13;13.10;;;10.55;;
45434;SDS011;31183;47.404;8.500;2023-07-09T01:34:40;11.00;;;9.50;;
45434;SDS011;31183;47.404;8.500;2023-07-09T01:37:07;14.00;;;12.07;;
45434;SDS011;31183;47.404;8.500;2023-07-09T01:39:34;15.00;;;11.25;;
45434;SDS011;31183;47.404;8.500;2023-07-09T01:42:02;12.57;;;10.90;;
45434;SDS011;31183;47.404;8.500;2023-07-09T01:44:29;14.30;;;11.95;;
45434;SDS011;31183;47.404;8.500;2023-07-09T01:46:55;14.52;;;12.85;;
45434;SDS011;31183;47.404;8.500;2023-07-09T01:49:22;13.43;;;11.98;;
45434;SDS011;31183;47.404;8.500;2023-07-09T01:51:48;17.60;;;13.02;;
45434;SDS011;31183;47.404;8.500;2023-07-09T01:54:16;15.73;;;13.32;;
45434;SDS011;31183;47.404;8.500;2023-07-09T01:56:43;13.82;;;12.43;;
45434;SDS011;31183;47.404;8.500;2023-07-09T01:59:09;16.95;;;13.45;;
45434;SDS011;31183;47.404;8.500;2023-07-09T02:01:37;15.18;;;12.70;;
45434;SDS011;31183;47.404;8.500;2023-07-09T02:04:04;16.05;;;13.57;;
45434;SDS011;31183;47.404;8.500;2023-07-09T02:06:31;17.65;;;13.75;;
45434;SDS011;31183;47.404;8.500;2023-07-09T02:08:58;15.32;;;13.73;;
45434;SDS011;31183;47.404;8.500;2023-07-09T02:11:24;17.15;;;13.30;;
45434;SDS011;31183;47.404;8.500;2023-07-09T02:13:51;16.60;;;13.95;;
45434;SDS011;31183;47.404;8.500;2023-07-09T02:16:18;15.68;;;14.07;;
45434;SDS011;31183;47.404;8.500;2023-07-09T02:18:44;17.23;;;14.38;;
45434;SDS011;31183;47.404;8.500;2023-07-09T02:21:11;15.43;;;11.90;;
45434;SDS011;31183;47.404;8.500;2023-07-09T02:23:38;16.20;;;12.98;;
45434;SDS011;31183;47.404;8.500;2023-07-09T02:26:04;15.15;;;12.40;;
45434;SDS011;31183;47.404;8.500;2023-07-09T02:28:31;16.33;;;11.65;;
45434;SDS011;31183;47.404;8.500;2023-07-09T02:30:58;13.55;;;11.82;;
45434;SDS011;31183;47.404;8.500;2023-07-09T02:33:25;15.05;;;13.23;;
45434;SDS011;31183;47.404;8.500;2023-07-09T02:35:51;17.90;;;14.60;;
45434;SDS011;31183;47.404;8.500;2023-07-09T02:38:18;18.63;;;14.05;;
45434;SDS011;31183;47.404;8.500;2023-07-09T02:40:45;23.85;;;21.45;;
45434;SDS011;31183;47.404;8.500;2023-07-09T02:43:12;15.82;;;14.23;;
45434;SDS011;31183;47.404;8.500;2023-07-09T02:45:38;15.60;;;13.02;;
45434;SDS011;31183;47.404;8.500;2023-07-09T02:48:05;15.40;;;12.18;;
45434;SDS011;31183;47.404;8.500;2023-07-09T02:50:32;13.75;;;11.77;;
45434;SDS011;31183;47.404;8.500;2023-07-09T02:52:58;14.45;;;11.13;;
45434;SDS011;31183;47.404;8.500;2023-07-09T02:55:25;16.42;;;11.75;;
45434;SDS011;31183;47.404;8.500;2023-07-09T02:57:51;15.60;;;11.77;;
45434;SDS011;31183;47.404;8.500;2023-07-09T03:00:18;14.13;;;11.30;;
45434;SDS011;31183;47.404;8.500;2023-07-09T03:02:45;13.13;;;11.65;;
45434;SDS011;31183;47.404;8.500;2023-07-09T03:05:11;19.13;;;13.20;;
45434;SDS011;31183;47.404;8.500;2023-07-09T03:07:38;14.60;;;12.20;;
45434;SDS011;31183;47.404;8.500;2023-07-09T03:10:05;15.27;;;11.05;;
45434;SDS011;31183;47.404;8.500;2023-07-09T03:12:32;12.07;;;10.80;;
45434;SDS011;31183;47.404;8.500;2023-07-09T03:14:58;11.98;;;10.23;;
45434;SDS011;31183;47.404;8.500;2023-07-09T03:17:25;13.45;;;9.85;;
45434;SDS011;31183;47.404;8.500;2023-07-09T03:19:52;15.65;;;9.85;;
45434;SDS011;31183;47.404;8.500;2023-07-09T03:22:18;13.73;;;9.93;;
45434;SDS011;31183;47.404;8.500;2023-07-09T03:24:45;11.00;;;9.68;;
45434;SDS011;31183;47.404;8.500;2023-07-09T03:27:12;11.55;;;8.65;;
45434;SDS011;31183;47.404;8.500;2023-07-09T03:29:38;12.23;;;10.00;;
45434;SDS011;31183;47.404;8.500;2023-07-09T03:32:05;13.13;;;9.18;;
45434;SDS011;31183;47.404;8.500;2023-07-09T03:34:32;12.75;;;9.32;;
45434;SDS011;31183;47.404;8.500;2023-07-09T03:36:59;11.82;;;9.90;;
45434;SDS011;31183;47.404;8.500;2023-07-09T03:39:25;12.50;;;9.40;;
45434;SDS011;31183;47.404;8.500;2023-07-09T03:41:52;15.75;;;9.30;;
45434;SDS011;31183;47.404;8.500;2023-07-09T03:44:18;16.58;;;10.15;;
45434;SDS011;31183;47.404;8.500;2023-07-09T03:46:45;11.30;;;9.50;;
45434;SDS011;31183;47.404;8.500;2023-07-09T03:49:12;15.95;;;10.10;;
45434;SDS011;31183;47.404;8.500;2023-07-09T03:51:38;11.43;;;9.35;;
45434;SDS011;31183;47.404;8.500;2023-07-09T03:54:05;12.10;;;10.38;;
45434;SDS011;31183;47.404;8.500;2023-07-09T03:56:33;17.33;;;10.73;;
45434;SDS011;31183;47.404;8.500;2023-07-09T03:58:59;13.38;;;9.77;;
45434;SDS011;31183;47.404;8.500;2023-07-09T04:01:26;15.40;;;10.88;;
45434;SDS011;31183;47.404;8.500;2023-07-09T04:03:53;13.85;;;10.43;;
45434;SDS011;31183;47.404;8.500;2023-07-09T04:06:20;12.10;;;10.80;;
45434;SDS011;31183;47.404;8.500;2023-07-09T04:08:46;14.68;;;10.80;;
45434;SDS011;31183;47.404;8.500;2023-07-09T04:11:13;14.25;;;11.23;;
45434;SDS011;31183;47.404;8.500;2023-07-09T04:13:39;10.82;;;9.80;;
45434;SDS011;31183;47.404;8.500;2023-07-09T04:16:06;15.77;;;10.32;;
45434;SDS011;31183;47.404;8.500;2023-07-09T04:18:33;12.52;;;10.27;;
45434;SDS011;31183;47.404;8.500;2023-07-09T04:21:02;15.40;;;10.23;;
45434;SDS011;31183;47.404;8.500;2023-07-09T04:23:28;11.00;;;9.77;;
45434;SDS011;31183;47.404;8.500;2023-07-09T04:25:55;14.52;;;10.77;;
45434;SDS011;31183;47.404;8.500;2023-07-09T04:28:21;16.42;;;10.05;;
45434;SDS011;31183;47.404;8.500;2023-07-09T04:30:49;11.40;;;9.90;;
45434;SDS011;31183;47.404;8.500;2023-07-09T04:33:17;12.15;;;9.82;;
45434;SDS011;31183;47.404;8.500;2023-07-09T04:35:46;13.35;;;9.50;;
45434;SDS011;31183;47.404;8.500;2023-07-09T04:38:13;10.90;;;9.68;;
45434;SDS011;31183;47.404;8.500;2023-07-09T04:40:41;13.20;;;9.95;;
45434;SDS011;31183;47.404;8.500;2023-07-09T04:43:07;12.70;;;9.27;;
45434;SDS011;31183;47.404;8.500;2023-07-09T04:45:34;11.02;;;8.98;;
45434;SDS011;31183;47.404;8.500;2023-07-09T04:48:01;13.85;;;10.40;;
45434;SDS011;31183;47.404;8.500;2023-07-09T04:50:28;12.38;;;9.38;;
45434;SDS011;31183;47.404;8.500;2023-07-09T04:52:55;13.35;;;9.30;;
45434;SDS011;31183;47.404;8.500;2023-07-09T04:55:22;15.60;;;9.35;;
45434;SDS011;31183;47.404;8.500;2023-07-09T04:57:48;10.48;;;9.23;;
45434;SDS011;31183;47.404;8.500;2023-07-09T05:00:15;12.05;;;8.70;;
45434;SDS011;31183;47.404;8.500;2023-07-09T05:02:42;11.98;;;9.32;;
45434;SDS011;31183;47.404;8.500;2023-07-09T05:05:09;12.15;;;10.05;;
45434;SDS011;31183;47.404;8.500;2023-07-09T05:07:38;13.98;;;8.70;;
45434;SDS011;31183;47.404;8.500;2023-07-09T05:10:06;12.25;;;9.38;;
45434;SDS011;31183;47.404;8.500;2023-07-09T05:12:33;15.95;;;10.02;;
45434;SDS011;31183;47.404;8.500;2023-07-09T05:14:59;10.80;;;8.93;;
45434;SDS011;31183;47.404;8.500;2023-07-09T05:17:26;10.68;;;8.93;;
45434;SDS011;31183;47.404;8.500;2023-07-09T05:19:53;11.40;;;9.00;;
45434;SDS011;31183;47.404;8.500;2023-07-09T05:22:19;14.70;;;11.15;;
45434;SDS011;31183;47.404;8.500;2023-07-09T05:24:46;9.65;;;8.38;;
45434;SDS011;31183;47.404;8.500;2023-07-09T05:27:13;11.98;;;9.57;;
45434;SDS011;31183;47.404;8.500;2023-07-09T05:29:39;9.68;;;8.32;;
45434;SDS011;31183;47.404;8.500;2023-07-09T05:32:06;10.45;;;7.07;;
45434;SDS011;31183;47.404;8.500;2023-07-09T05:34:33;11.60;;;8.15;;
45434;SDS011;31183;47.404;8.500;2023-07-09T05:36:59;12.63;;;8.02;;
45434;SDS011;31183;47.404;8.500;2023-07-09T05:39:26;9.30;;;8.05;;
45434;SDS011;31183;47.404;8.500;2023-07-09T05:41:53;11.65;;;8.07;;
45434;SDS011;31183;47.404;8.500;2023-07-09T05:44:20;13.07;;;9.65;;
45434;SDS011;31183;47.404;8.500;2023-07-09T05:46:46;10.63;;;9.50;;
45434;SDS011;31183;47.404;8.500;2023-07-09T05:49:13;13.85;;;11.35;;
45434;SDS011;31183;47.404;8.500;2023-07-09T05:51:40;16.30;;;11.25;;
45434;SDS011;31183;47.404;8.500;2023-07-09T05:54:06;17.17;;;11.93;;
45434;SDS011;31183;47.404;8.500;2023-07-09T05:56:33;16.35;;;11.85;;
45434;SDS011;31183;47.404;8.500;2023-07-09T05:59:00;13.10;;;10.77;;
45434;SDS011;31183;47.404;8.500;2023-07-09T06:01:26;15.60;;;10.93;;
45434;SDS011;31183;47.404;8.500;2023-07-09T06:03:53;12.80;;;11.25;;
45434;SDS011;31183;47.404;8.500;2023-07-09T06:06:20;12.43;;;10.48;;
45434;SDS011;31183;47.404;8.500;2023-07-09T06:08:48;13.23;;;10.45;;
45434;SDS011;31183;47.404;8.500;2023-07-09T06:11:16;12.68;;;9.43;;
45434;SDS011;31183;47.404;8.500;2023-07-09T06:13:44;12.85;;;10.15;;
45434;SDS011;31183;47.404;8.500;2023-07-09T06:16:11;10.40;;;9.32;;
45434;SDS011;31183;47.404;8.500;2023-07-09T06:18:38;11.45;;;9.75;;
45434;SDS011;31183;47.404;8.500;2023-07-09T06:21:05;14.02;;;8.65;;
45434;SDS011;31183;47.404;8.500;2023-07-09T06:23:33;11.23;;;9.45;;
45434;SDS011;31183;47.404;8.500;2023-07-09T06:26:00;8.90;;;7.75;;
45434;SDS011;31183;47.404;8.500;2023-07-09T06:28:27;8.30;;;6.32;;
45434;SDS011;31183;47.404;8.500;2023-07-09T06:30:57;9.73;;;7.10;;
45434;SDS011;31183;47.404;8.500;2023-07-09T06:33:25;8.63;;;6.78;;
45434;SDS011;31183;47.404;8.500;2023-07-09T06:35:58;11.80;;;7.97;;
45434;SDS011;31183;47.404;8.500;2023-07-09T06:38:28;9.38;;;8.43;;
45434;SDS011;31183;47.404;8.500;2023-07-09T06:40:56;11.40;;;10.30;;
45434;SDS011;31183;47.404;8.500;2023-07-09T06:43:23;12.68;;;11.02;;
45434;SDS011;31183;47.404;8.500;2023-07-09T06:45:57;10.70;;;9.60;;
45434;SDS011;31183;47.404;8.500;2023-07-09T06:48:27;11.02;;;9.93;;
45434;SDS011;31183;47.404;8.500;2023-07-09T06:50:55;13.95;;;10.05;;
45434;SDS011;31183;47.404;8.500;2023-07-09T06:53:22;10.63;;;9.52;;
45434;SDS011;31183;47.404;8.500;2023-07-09T06:55:49;10.80;;;9.63;;
45434;SDS011;31183;47.404;8.500;2023-07-09T06:58:16;12.32;;;9.07;;
45434;SDS011;31183;47.404;8.500;2023-07-09T07:00:44;10.20;;;8.63;;
45434;SDS011;31183;47.404;8.500;2023-07-09T07:03:11;10.05;;;8.80;;
45434;SDS011;31183;47.404;8.500;2023-07-09T07:05:42;12.85;;;7.90;;
45434;SDS011;31183;47.404;8.500;2023-07-09T07:08:12;10.75;;;7.78;;
45434;SDS011;31183;47.404;8.500;2023-07-09T07:10:40;11.65;;;8.52;;
45434;SDS011;31183;47.404;8.500;2023-07-09T07:13:09;10.23;;;8.20;;
45434;SDS011;31183;47.404;8.500;2023-07-09T07:15:37;8.93;;;7.85;;
45434;SDS011;31183;47.404;8.500;2023-07-09T07:18:04;8.27;;;7.47;;
45434;SDS011;31183;47.404;8.500;2023-07-09T07:20:32;8.82;;;7.45;;
45434;SDS011;31183;47.404;8.500;2023-07-09T07:22:59;7.90;;;7.20;;
45434;SDS011;31183;47.404;8.500;2023-07-09T07:25:26;10.13;;;6.47;;
45434;SDS011;31183;47.404;8.500;2023-07-09T07:27:53;7.60;;;6.65;;
45434;SDS011;31183;47.404;8.500;2023-07-09T07:30:20;10.30;;;7.00;;
45434;SDS011;31183;47.404;8.500;2023-07-09T07:32:50;7.68;;;6.40;;
45434;SDS011;31183;47.404;8.500;2023-07-09T07:35:17;6.70;;;6.07;;
45434;SDS011;31183;47.404;8.500;2023-07-09T07:37:45;7.75;;;6.75;;
45434;SDS011;31183;47.404;8.500;2023-07-09T07:40:12;7.65;;;6.28;;
45434;SDS011;31183;47.404;8.500;2023-07-09T07:42:38;7.45;;;6.63;;
45434;SDS011;31183;47.404;8.500;2023-07-09T07:45:05;7.82;;;6.95;;
45434;SDS011;31183;47.404;8.500;2023-07-09T07:47:33;7.32;;;5.97;;
45434;SDS011;31183;47.404;8.500;2023-07-09T07:50:03;7.93;;;6.93;;
45434;SDS011;31183;47.404;8.500;2023-07-09T07:52:30;7.95;;;6.65;;
45434;SDS011;31183;47.404;8.500;2023-07-09T07:54:57;12.60;;;7.43;;
45434;SDS011;31183;47.404;8.500;2023-07-09T07:57:24;6.97;;;6.30;;
45434;SDS011;31183;47.404;8.500;2023-07-09T07:59:52;8.00;;;7.20;;
45434;SDS011;31183;47.404;8.500;2023-07-09T08:02:19;6.35;;;5.85;;
45434;SDS011;31183;47.404;8.500;2023-07-09T08:04:45;8.98;;;5.90;;
45434;SDS011;31183;47.404;8.500;2023-07-09T08:07:12;9.60;;;6.35;;
45434;SDS011;31183;47.404;8.500;2023-07-09T08:09:39;6.25;;;5.60;;
45434;SDS011;31183;47.404;8.500;2023-07-09T08:12:06;6.30;;;5.80;;
45434;SDS011;31183;47.404;8.500;2023-07-09T08:14:41;6.82;;;5.43;;
45434;SDS011;31183;47.404;8.500;2023-07-09T08:17:10;7.70;;;5.93;;
45434;SDS011;31183;47.404;8.500;2023-07-09T08:19:43;6.53;;;5.88;;
45434;SDS011;31183;47.404;8.500;2023-07-09T08:22:17;7.65;;;4.78;;
45434;SDS011;31183;47.404;8.500;2023-07-09T08:24:46;5.72;;;5.22;;
45434;SDS011;31183;47.404;8.500;2023-07-09T08:27:17;5.68;;;5.18;;
45434;SDS011;31183;47.404;8.500;2023-07-09T08:29:44;5.95;;;4.82;;
45434;SDS011;31183;47.404;8.500;2023-07-09T08:32:11;9.45;;;5.00;;
45434;SDS011;31183;47.404;8.500;2023-07-09T08:34:38;8.15;;;5.13;;
45434;SDS011;31183;47.404;8.500;2023-07-09T08:37:26;6.78;;;5.13;;
45434;SDS011;31183;47.404;8.500;2023-07-09T08:39:52;8.02;;;4.70;;
45434;SDS011;31183;47.404;8.500;2023-07-09T08:42:29;6.40;;;5.07;;
45434;SDS011;31183;47.404;8.500;2023-07-09T08:45:24;4.38;;;3.95;;
45434;SDS011;31183;47.404;8.500;2023-07-09T08:50:57;5.43;;;4.75;;
45434;SDS011;31183;47.404;8.500;2023-07-09T08:56:00;6.43;;;4.95;;
45434;SDS011;31183;47.404;8.500;2023-07-09T08:58:30;8.57;;;4.90;;
45434;SDS011;31183;47.404;8.500;2023-07-09T09:00:59;6.43;;;4.70;;
45434;SDS011;31183;47.404;8.500;2023-07-09T09:03:37;7.80;;;5.03;;
45434;SDS011;31183;47.404;8.500;2023-07-09T09:06:11;4.80;;;4.40;;
45434;SDS011;31183;47.404;8.500;2023-07-09T09:08:49;6.22;;;5.22;;
45434;SDS011;31183;47.404;8.500;2023-07-09T09:14:17;10.95;;;4.90;;
45434;SDS011;31183;47.404;8.500;2023-07-09T09:16:52;7.40;;;4.80;;
45434;SDS011;31183;47.404;8.500;2023-07-09T09:19:22;6.13;;;4.80;;
45434;SDS011;31183;47.404;8.500;2023-07-09T09:22:05;6.97;;;4.88;;
45434;SDS011;31183;47.404;8.500;2023-07-09T09:24:53;6.70;;;4.97;;
45434;SDS011;31183;47.404;8.500;2023-07-09T09:27:24;7.45;;;4.68;;
45434;SDS011;31183;47.404;8.500;2023-07-09T09:29:51;5.85;;;4.65;;
45434;SDS011;31183;47.404;8.500;2023-07-09T09:32:22;6.68;;;5.22;;
45434;SDS011;31183;47.404;8.500;2023-07-09T09:34:53;8.98;;;5.80;;
45434;SDS011;31183;47.404;8.500;2023-07-09T09:37:25;7.15;;;5.00;;
45434;SDS011;31183;47.404;8.500;2023-07-09T09:39:58;6.53;;;5.03;;
45434;SDS011;31183;47.404;8.500;2023-07-09T09:42:43;7.55;;;5.25;;
45434;SDS011;31183;47.404;8.500;2023-07-09T09:45:14;7.28;;;5.43;;
45434;SDS011;31183;47.404;8.500;2023-07-09T09:47:44;9.70;;;5.63;;
45434;SDS011;31183;47.404;8.500;2023-07-09T09:50:18;7.18;;;4.93;;
45434;SDS011;31183;47.404;8.500;2023-07-09T09:52:47;7.35;;;5.28;;
45434;SDS011;31183;47.404;8.500;2023-07-09T09:55:19;11.27;;;5.90;;
45434;SDS011;31183;47.404;8.500;2023-07-09T09:57:49;6.82;;;4.80;;
45434;SDS011;31183;47.404;8.500;2023-07-09T10:00:18;6.45;;;5.35;;
45434;SDS011;31183;47.404;8.500;2023-07-09T10:02:47;8.38;;;5.28;;
45434;SDS011;31183;47.404;8.500;2023-07-09T10:05:15;6.85;;;5.18;;
45434;SDS011;31183;47.404;8.500;2023-07-09T10:08:42;10.63;;;5.55;;
45434;SDS011;31183;47.404;8.500;2023-07-09T10:10:35;7.88;;;5.40;;
45434;SDS011;31183;47.404;8.500;2023-07-09T10:13:26;9.38;;;5.57;;
45434;SDS011;31183;47.404;8.500;2023-07-09T10:16:02;7.57;;;5.78;;
45434;SDS011;31183;47.404;8.500;2023-07-09T10:21:30;6.78;;;5.85;;
45434;SDS011;31183;47.404;8.500;2023-07-09T10:27:09;8.23;;;5.43;;
45434;SDS011;31183;47.404;8.500;2023-07-09T10:35:29;7.45;;;5.03;;
45434;SDS011;31183;47.404;8.500;2023-07-09T10:38:22;6.85;;;5.20;;
45434;SDS011;31183;47.404;8.500;2023-07-09T10:41:12;7.95;;;5.22;;
45434;SDS011;31183;47.404;8.500;2023-07-09T10:43:52;8.33;;;5.30;;
45434;SDS011;31183;47.404;8.500;2023-07-09T10:46:37;5.95;;;4.53;;
45434;SDS011;31183;47.404;8.500;2023-07-09T10:49:09;7.78;;;5.07;;
45434;SDS011;31183;47.404;8.500;2023-07-09T10:51:39;8.18;;;5.32;;
45434;SDS011;31183;47.404;8.500;2023-07-09T10:57:04;7.35;;;5.05;;
45434;SDS011;31183;47.404;8.500;2023-07-09T10:59:37;6.95;;;5.00;;
45434;SDS011;31183;47.404;8.500;2023-07-09T11:04:43;6.40;;;5.07;;
45434;SDS011;31183;47.404;8.500;2023-07-09T11:07:14;6.28;;;5.60;;
45434;SDS011;31183;47.404;8.500;2023-07-09T11:09:47;5.97;;;4.47;;
45434;SDS011;31183;47.404;8.500;2023-07-09T11:12:23;6.93;;;4.72;;
45434;SDS011;31183;47.404;8.500;2023-07-09T11:14:59;6.63;;;4.45;;
45434;SDS011;31183;47.404;8.500;2023-07-09T11:17:31;7.85;;;4.55;;
45434;SDS011;31183;47.404;8.500;2023-07-09T11:20:00;7.72;;;5.20;;
45434;SDS011;31183;47.404;8.500;2023-07-09T11:22:41;10.45;;;5.53;;
45434;SDS011;31183;47.404;8.500;2023-07-09T11:25:26;7.57;;;5.25;;
45434;SDS011;31183;47.404;8.500;2023-07-09T11:28:14;5.30;;;4.13;;
45434;SDS011;31183;47.404;8.500;2023-07-09T11:30:53;5.47;;;4.82;;
45434;SDS011;31183;47.404;8.500;2023-07-09T11:33:26;7.15;;;5.50;;
45434;SDS011;31183;47.404;8.500;2023-07-09T11:36:12;6.07;;;5.22;;
45434;SDS011;31183;47.404;8.500;2023-07-09T11:38:42;9.20;;;4.63;;
45434;SDS011;31183;47.404;8.500;2023-07-09T11:49:21;6.63;;;5.10;;
45434;SDS011;31183;47.404;8.500;2023-07-09T11:51:52;5.93;;;5.07;;
45434;SDS011;31183;47.404;8.500;2023-07-09T11:54:23;6.65;;;4.25;;
45434;SDS011;31183;47.404;8.500;2023-07-09T11:56:54;8.52;;;4.43;;
45434;SDS011;31183;47.404;8.500;2023-07-09T11:59:22;5.22;;;4.72;;
45434;SDS011;31183;47.404;8.500;2023-07-09T12:01:48;6.78;;;5.10;;
45434;SDS011;31183;47.404;8.500;2023-07-09T12:04:19;5.45;;;4.53;;
45434;SDS011;31183;47.404;8.500;2023-07-09T12:06:48;9.82;;;4.93;;
45434;SDS011;31183;47.404;8.500;2023-07-09T12:09:20;6.80;;;4.40;;
45434;SDS011;31183;47.404;8.500;2023-07-09T12:11:48;6.25;;;4.22;;
45434;SDS011;31183;47.404;8.500;2023-07-09T12:14:17;6.45;;;4.80;;
45434;SDS011;31183;47.404;8.500;2023-07-09T12:16:46;4.88;;;4.35;;
45434;SDS011;31183;47.404;8.500;2023-07-09T12:19:15;5.45;;;4.68;;
45434;SDS011;31183;47.404;8.500;2023-07-09T12:21:44;9.10;;;5.72;;
45434;SDS011;31183;47.404;8.500;2023-07-09T12:24:21;7.43;;;5.05;;
45434;SDS011;31183;47.404;8.500;2023-07-09T12:26:53;6.20;;;4.60;;
45434;SDS011;31183;47.404;8.500;2023-07-09T12:29:20;8.98;;;4.65;;
45434;SDS011;31183;47.404;8.500;2023-07-09T12:31:51;5.50;;;4.95;;
45434;SDS011;31183;47.404;8.500;2023-07-09T12:34:18;8.38;;;5.43;;
45434;SDS011;31183;47.404;8.500;2023-07-09T12:36:49;5.78;;;4.28;;
45434;SDS011;31183;47.404;8.500;2023-07-09T12:39:18;6.65;;;4.90;;
45434;SDS011;31183;47.404;8.500;2023-07-09T12:41:54;9.98;;;5.13;;
45434;SDS011;31183;47.404;8.500;2023-07-09T12:44:22;7.57;;;4.55;;
45434;SDS011;31183;47.404;8.500;2023-07-09T12:46:50;8.13;;;4.85;;
45434;SDS011;31183;47.404;8.500;2023-07-09T12:49:23;9.30;;;5.25;;
45434;SDS011;31183;47.404;8.500;2023-07-09T12:51:53;6.00;;;4.93;;
45434;SDS011;31183;47.404;8.500;2023-07-09T12:54:24;7.28;;;4.38;;
45434;SDS011;31183;47.404;8.500;2023-07-09T12:56:52;7.15;;;5.38;;
45434;SDS011;31183;47.404;8.500;2023-07-09T12:59:53;8.10;;;5.20;;
45434;SDS011;31183;47.404;8.500;2023-07-09T13:02:17;7.18;;;4.50;;
45434;SDS011;31183;47.404;8.500;2023-07-09T13:04:44;8.57;;;4.82;;
45434;SDS011;31183;47.404;8.500;2023-07-09T13:09:51;8.95;;;5.07;;
45434;SDS011;31183;47.404;8.500;2023-07-09T13:12:19;6.95;;;5.18;;
45434;SDS011;31183;47.404;8.500;2023-07-09T13:14:52;7.70;;;5.10;;
45434;SDS011;31183;47.404;8.500;2023-07-09T13:17:20;8.85;;;5.28;;
45434;SDS011;31183;47.404;8.500;2023-07-09T13:19:46;7.35;;;5.10;;
45434;SDS011;31183;47.404;8.500;2023-07-09T13:22:17;10.38;;;5.45;;
45434;SDS011;31183;47.404;8.500;2023-07-09T13:24:45;8.23;;;4.60;;
45434;SDS011;31183;47.404;8.500;2023-07-09T13:27:12;9.93;;;5.03;;
45434;SDS011;31183;47.404;8.500;2023-07-09T13:29:40;8.25;;;5.05;;
45434;SDS011;31183;47.404;8.500;2023-07-09T13:32:11;12.02;;;5.82;;
45434;SDS011;31183;47.404;8.500;2023-07-09T13:34:40;6.50;;;4.55;;
45434;SDS011;31183;47.404;8.500;2023-07-09T13:37:09;9.32;;;5.40;;
45434;SDS011;31183;47.404;8.500;2023-07-09T13:39:38;7.45;;;4.78;;
45434;SDS011;31183;47.404;8.500;2023-07-09T13:42:14;9.13;;;4.72;;
45434;SDS011;31183;47.404;8.500;2023-07-09T13:44:43;6.53;;;4.93;;
45434;SDS011;31183;47.404;8.500;2023-07-09T13:47:15;6.60;;;4.63;;
45434;SDS011;31183;47.404;8.500;2023-07-09T13:49:44;7.45;;;4.97;;
45434;SDS011;31183;47.404;8.500;2023-07-09T13:52:17;5.55;;;4.35;;
45434;SDS011;31183;47.404;8.500;2023-07-09T13:54:51;6.65;;;4.72;;
45434;SDS011;31183;47.404;8.500;2023-07-09T13:57:18;7.45;;;5.20;;
45434;SDS011;31183;47.404;8.500;2023-07-09T13:59:47;5.88;;;4.63;;
45434;SDS011;31183;47.404;8.500;2023-07-09T14:02:19;6.82;;;5.03;;
45434;SDS011;31183;47.404;8.500;2023-07-09T14:04:50;7.78;;;4.32;;
45434;SDS011;31183;47.404;8.500;2023-07-09T14:07:22;7.88;;;5.07;;
45434;SDS011;31183;47.404;8.500;2023-07-09T14:09:52;5.97;;;4.32;;
45434;SDS011;31183;47.404;8.500;2023-07-09T14:12:19;8.82;;;4.53;;
45434;SDS011;31183;47.404;8.500;2023-07-09T14:14:46;7.63;;;5.25;;
45434;SDS011;31183;47.404;8.500;2023-07-09T14:17:15;7.03;;;4.90;;
45434;SDS011;31183;47.404;8.500;2023-07-09T14:19:42;5.88;;;4.53;;
45434;SDS011;31183;47.404;8.500;2023-07-09T14:22:20;5.88;;;4.53;;
45434;SDS011;31183;47.404;8.500;2023-07-09T14:24:47;5.65;;;4.97;;
45434;SDS011;31183;47.404;8.500;2023-07-09T14:27:14;4.85;;;4.22;;
45434;SDS011;31183;47.404;8.500;2023-07-09T14:29:40;6.07;;;4.63;;
45434;SDS011;31183;47.404;8.500;2023-07-09T14:32:11;7.13;;;4.10;;
45434;SDS011;31183;47.404;8.500;2023-07-09T14:34:54;7.43;;;4.13;;
45434;SDS011;31183;47.404;8.500;2023-07-09T14:37:21;4.97;;;4.45;;
45434;SDS011;31183;47.404;8.500;2023-07-09T14:39:48;8.68;;;4.45;;
45434;SDS011;31183;47.404;8.500;2023-07-09T14:42:14;7.38;;;4.53;;
45434;SDS011;31183;47.404;8.500;2023-07-09T14:44:42;10.50;;;4.97;;
45434;SDS011;31183;47.404;8.500;2023-07-09T14:47:11;5.00;;;4.43;;
45434;SDS011;31183;47.404;8.500;2023-07-09T14:49:44;10.00;;;4.80;;
45434;SDS011;31183;47.404;8.500;2023-07-09T14:52:15;6.60;;;4.38;;
45434;SDS011;31183;47.404;8.500;2023-07-09T14:54:45;5.93;;;4.90;;
45434;SDS011;31183;47.404;8.500;2023-07-09T14:59:45;8.07;;;4.70;;
45434;SDS011;31183;47.404;8.500;2023-07-09T15:02:19;4.95;;;4.32;;
45434;SDS011;31183;47.404;8.500;2023-07-09T15:04:57;7.22;;;4.30;;
45434;SDS011;31183;47.404;8.500;2023-07-09T15:07:24;13.15;;;5.45;;
45434;SDS011;31183;47.404;8.500;2023-07-09T15:09:56;5.60;;;4.90;;
45434;SDS011;31183;47.404;8.500;2023-07-09T15:12:26;7.72;;;4.60;;
45434;SDS011;31183;47.404;8.500;2023-07-09T15:15:06;8.13;;;4.53;;
45434;SDS011;31183;47.404;8.500;2023-07-09T15:17:39;9.90;;;5.50;;
45434;SDS011;31183;47.404;8.500;2023-07-09T15:20:12;7.13;;;5.28;;
45434;SDS011;31183;47.404;8.500;2023-07-09T15:22:41;10.43;;;4.30;;
45434;SDS011;31183;47.404;8.500;2023-07-09T15:25:12;6.25;;;4.70;;
45434;SDS011;31183;47.404;8.500;2023-07-09T15:27:41;7.03;;;5.00;;
45434;SDS011;31183;47.404;8.500;2023-07-09T15:30:15;7.63;;;4.72;;
45434;SDS011;31183;47.404;8.500;2023-07-09T15:32:47;6.43;;;4.55;;
45434;SDS011;31183;47.404;8.500;2023-07-09T15:35:15;6.43;;;4.82;;
45434;SDS011;31183;47.404;8.500;2023-07-09T15:37:44;7.38;;;4.90;;